createdAt,value
2018-05-04T00:01:55.507Z,66.30
2018-05-04T00:04:24.276Z,66.10
2018-05-04T00:06:52.856Z,66.40
2018-05-04T00:09:21.996Z,66.30
2018-05-04T00:11:50.975Z,66.40
2018-05-04T00:14:20.098Z,66.40
2018-05-04T00:16:48.916Z,66.70
2018-05-04T00:19:18.207Z,66.80
2018-05-04T00:21:47.496Z,66.80
2018-05-04T00:24:15.875Z,67.10
2018-05-04T00:26:44.676Z,67.20
2018-05-04T00:29:13.195Z,67.60
2018-05-04T00:31:42.837Z,68.70
2018-05-04T00:34:12.196Z,69.70
2018-05-04T00:36:42.216Z,70.10
2018-05-04T00:39:11.176Z,70.10
2018-05-04T00:41:39.918Z,70.00
2018-05-04T00:44:08.395Z,70.00
2018-05-04T00:46:37.055Z,70.10
2018-05-04T00:49:05.895Z,69.80
2018-05-04T00:51:35.395Z,69.40
2018-05-04T00:54:15.916Z,68.70
2018-05-04T00:56:44.737Z,68.50
2018-05-04T00:59:13.375Z,68.50
2018-05-04T01:01:42.376Z,68.40
2018-05-04T01:04:11.701Z,68.20
2018-05-04T01:06:40.220Z,68.60
2018-05-04T01:09:09.155Z,68.50
2018-05-04T01:11:37.836Z,68.30
2018-05-04T01:14:06.556Z,68.20
2018-05-04T01:16:35.316Z,68.00
2018-05-04T01:19:04.023Z,68.10
2018-05-04T01:21:33.535Z,68.20
2018-05-04T01:24:02.016Z,68.00
2018-05-04T01:26:30.657Z,68.20
2018-05-04T01:28:59.255Z,68.00
2018-05-04T01:31:28.959Z,67.70
2018-05-04T01:33:57.754Z,67.70
2018-05-04T01:36:27.516Z,67.80
2018-05-04T01:38:57.017Z,68.00
2018-05-04T01:41:26.776Z,69.10
2018-05-04T01:43:56.275Z,68.20
2018-05-04T01:46:24.996Z,68.40
2018-05-04T01:48:53.996Z,68.30
2018-05-04T01:51:23.256Z,68.10
2018-05-04T01:53:52.256Z,68.40
2018-05-04T01:56:21.396Z,68.70
2018-05-04T01:58:50.496Z,68.20
2018-05-04T02:01:19.576Z,68.20
2018-05-04T02:03:48.717Z,68.00
2018-05-04T02:06:17.756Z,68.00
2018-05-04T02:08:47.016Z,68.10
2018-05-04T02:11:15.610Z,68.40
2018-05-04T02:13:44.195Z,68.60
2018-05-04T02:16:12.676Z,68.60
2018-05-04T02:18:41.416Z,68.60
2018-05-04T02:21:10.156Z,68.50
2018-05-04T02:23:38.836Z,68.70
2018-05-04T02:26:07.897Z,68.60
2018-05-04T02:28:37.397Z,68.60
2018-05-04T02:31:06.640Z,68.60
2018-05-04T02:33:35.637Z,68.70
2018-05-04T02:36:05.396Z,68.80
2018-05-04T02:38:33.876Z,69.00
2018-05-04T02:41:03.636Z,69.10
2018-05-04T02:43:32.375Z,69.30
2018-05-04T02:46:02.316Z,69.60
2018-05-04T02:48:31.139Z,69.50
2018-05-04T02:51:00.117Z,69.80
2018-05-04T02:53:29.117Z,70.40
2018-05-04T02:55:59.089Z,69.80
2018-05-04T02:58:28.383Z,69.90
2018-05-04T03:00:57.200Z,69.60
2018-05-04T03:03:25.603Z,69.30
2018-05-04T03:05:54.596Z,69.30
2018-05-04T03:08:23.156Z,69.50
2018-05-04T03:10:52.092Z,69.30
2018-05-04T03:13:21.316Z,69.10
2018-05-04T03:15:50.556Z,68.40
2018-05-04T03:18:19.036Z,67.70
2018-05-04T03:20:47.797Z,68.40
2018-05-04T03:23:16.757Z,68.40
2018-05-04T03:25:45.776Z,68.10
2018-05-04T03:28:15.256Z,68.20
2018-05-04T03:30:43.756Z,68.10
2018-05-04T03:33:12.939Z,67.70
2018-05-04T03:35:42.718Z,67.00
2018-05-04T03:38:12.537Z,67.40
2018-05-04T03:40:42.516Z,67.10
2018-05-04T03:43:11.536Z,67.10
2018-05-04T03:45:40.376Z,66.30
2018-05-04T03:48:10.556Z,66.00
2018-05-04T03:50:40.056Z,66.50
2018-05-04T03:53:09.297Z,65.70
2018-05-04T03:55:38.295Z,66.00
2018-05-04T03:58:19.056Z,66.50
2018-05-04T04:01:00.876Z,66.30
2018-05-04T04:03:41.617Z,65.10
2018-05-04T04:06:10.280Z,65.10
2018-05-04T04:08:39.896Z,65.30
2018-05-04T04:11:08.597Z,64.90
2018-05-04T04:13:37.576Z,64.90
2018-05-04T04:16:06.916Z,64.60
2018-05-04T04:18:35.600Z,65.10
2018-05-04T04:21:05.078Z,65.30
2018-05-04T04:23:33.837Z,65.30
2018-05-04T04:26:02.556Z,65.50
2018-05-04T04:28:32.040Z,64.90
2018-05-04T04:31:00.296Z,65.10
2018-05-04T04:33:29.536Z,65.60
2018-05-04T04:35:59.038Z,65.20
2018-05-04T04:38:27.759Z,65.30
2018-05-04T04:40:57.036Z,65.20
2018-05-04T04:43:26.036Z,64.90
2018-05-04T04:45:55.776Z,64.90
2018-05-04T04:48:24.777Z,64.70
2018-05-04T04:50:54.056Z,64.60
2018-05-04T04:53:24.297Z,64.50
2018-05-04T04:55:53.805Z,64.40
2018-05-04T04:58:22.738Z,64.00
2018-05-04T05:00:52.320Z,64.50
2018-05-04T05:03:22.074Z,64.10
2018-05-04T05:05:50.799Z,63.80
2018-05-04T05:08:19.718Z,63.90
2018-05-04T05:10:48.356Z,63.90
2018-05-04T05:13:17.037Z,63.50
2018-05-04T05:15:46.280Z,63.00
2018-05-04T05:18:16.217Z,63.10
2018-05-04T05:20:46.766Z,63.40
2018-05-04T05:23:15.297Z,63.40
2018-05-04T05:25:45.277Z,63.40
2018-05-04T05:28:14.317Z,63.20
2018-05-04T05:30:43.037Z,63.30
2018-05-04T05:33:11.975Z,63.50
2018-05-04T05:35:41.290Z,63.10
2018-05-04T05:38:10.119Z,63.30
2018-05-04T05:40:39.277Z,63.40
2018-05-04T05:43:07.817Z,63.30
2018-05-04T05:45:36.736Z,63.10
2018-05-04T05:48:05.498Z,63.20
2018-05-04T05:50:34.229Z,63.20
2018-05-04T05:53:03.457Z,62.90
2018-05-04T05:55:31.937Z,63.10
2018-05-04T05:58:01.192Z,62.60
2018-05-04T06:00:29.516Z,62.50
2018-05-04T06:02:57.981Z,62.30
2018-05-04T06:05:26.899Z,61.20
2018-05-04T06:07:56.339Z,60.90
2018-05-04T06:10:25.399Z,60.70
2018-05-04T06:12:54.119Z,60.90
2018-05-04T06:15:23.119Z,61.60
2018-05-04T06:17:52.879Z,61.10
2018-05-04T06:20:22.400Z,61.00
2018-05-04T06:22:51.380Z,60.40
2018-05-04T06:25:20.641Z,60.30
2018-05-04T06:27:49.659Z,60.00
2018-05-04T06:30:18.879Z,60.10
2018-05-04T06:32:47.879Z,60.60
2018-05-04T06:35:17.879Z,60.50
2018-05-04T06:37:46.881Z,60.10
2018-05-04T06:40:15.879Z,60.00
2018-05-04T06:42:45.048Z,59.80
2018-05-04T06:45:13.441Z,59.30
2018-05-04T06:47:42.359Z,58.90
2018-05-04T06:50:11.339Z,58.70
2018-05-04T06:52:40.081Z,58.50
2018-05-04T06:55:10.079Z,57.70
2018-05-04T06:57:38.821Z,57.70
2018-05-04T07:00:07.279Z,57.60
2018-05-04T07:02:36.300Z,57.10
2018-05-04T07:05:06.060Z,57.20
2018-05-04T07:07:34.760Z,57.20
2018-05-04T07:10:03.779Z,57.00
2018-05-04T07:12:32.519Z,56.80
2018-05-04T07:15:01.295Z,56.50
2018-05-04T07:17:30.279Z,56.70
2018-05-04T07:20:00.780Z,56.90
2018-05-04T07:22:29.519Z,56.90
2018-05-04T07:24:58.580Z,56.10
2018-05-04T07:27:27.260Z,56.50
2018-05-04T07:29:57.359Z,56.60
2018-05-04T07:32:26.265Z,56.60
2018-05-04T07:34:55.020Z,56.20
2018-05-04T07:37:23.501Z,56.00
2018-05-04T07:39:53.239Z,56.10
2018-05-04T07:42:21.999Z,56.00
2018-05-04T07:44:51.741Z,56.10
2018-05-04T07:47:20.740Z,56.00
2018-05-04T07:49:49.739Z,56.10
2018-05-04T07:52:19.239Z,55.80
2018-05-04T07:54:48.499Z,55.50
2018-05-04T07:57:17.999Z,55.70
2018-05-04T07:59:47.363Z,55.70
2018-05-04T08:02:16.719Z,55.70
2018-05-04T08:04:45.220Z,55.70
2018-05-04T08:07:14.479Z,55.70
2018-05-04T08:09:43.740Z,55.40
2018-05-04T08:12:13.324Z,55.20
2018-05-04T08:14:42.779Z,55.40
2018-05-04T08:17:12.003Z,55.80
2018-05-04T08:19:40.920Z,55.70
2018-05-04T08:22:09.979Z,55.80
2018-05-04T08:24:40.019Z,55.90
2018-05-04T08:27:08.660Z,55.90
2018-05-04T08:29:37.460Z,56.00
2018-05-04T08:32:06.960Z,56.10
2018-05-04T08:34:35.699Z,55.60
2018-05-04T08:37:04.519Z,55.50
2018-05-04T08:39:33.667Z,55.50
2018-05-04T08:42:02.679Z,55.40
2018-05-04T08:44:31.940Z,55.60
2018-05-04T08:47:01.179Z,55.30
2018-05-04T08:49:30.420Z,55.10
2018-05-04T08:51:59.123Z,55.00
2018-05-04T08:54:28.032Z,55.10
2018-05-04T08:56:57.159Z,55.30
2018-05-04T08:59:25.899Z,55.20
2018-05-04T09:01:54.480Z,55.10
2018-05-04T09:04:23.379Z,54.70
2018-05-04T09:06:54.261Z,55.50
2018-05-04T09:09:24.697Z,55.70
2018-05-04T09:11:55.061Z,55.60
2018-05-04T09:14:24.458Z,55.60
2018-05-04T09:16:53.203Z,55.30
2018-05-04T09:19:22.199Z,55.30
2018-05-04T09:21:50.739Z,55.20
2018-05-04T09:24:19.678Z,55.10
2018-05-04T09:26:49.681Z,55.20
2018-05-04T09:29:18.619Z,55.20
2018-05-04T09:31:47.448Z,55.00
2018-05-04T09:34:16.259Z,55.30
2018-05-04T09:36:45.599Z,55.40
2018-05-04T09:39:14.419Z,55.40
2018-05-04T09:41:43.642Z,55.10
2018-05-04T09:44:12.835Z,55.00
2018-05-04T09:46:41.878Z,54.80
2018-05-04T09:49:11.265Z,55.00
2018-05-04T09:51:40.639Z,55.10
2018-05-04T09:54:09.399Z,55.30
2018-05-04T09:56:38.880Z,55.30
2018-05-04T09:59:07.879Z,55.40
2018-05-04T10:01:37.659Z,55.30
2018-05-04T10:04:06.878Z,55.20
2018-05-04T10:06:35.546Z,55.20
2018-05-04T10:09:04.365Z,55.20
2018-05-04T10:11:33.838Z,55.00
2018-05-04T10:14:02.428Z,54.90
2018-05-04T10:16:30.675Z,54.90
2018-05-04T10:18:59.840Z,54.80
2018-05-04T10:21:28.811Z,54.70
2018-05-04T10:23:57.951Z,54.20
2018-05-04T10:26:27.051Z,54.40
2018-05-04T10:28:55.818Z,54.30
2018-05-04T10:31:25.301Z,54.10
2018-05-04T10:33:54.570Z,54.30
2018-05-04T10:36:23.910Z,54.70
2018-05-04T10:38:53.101Z,54.50
2018-05-04T10:41:22.030Z,54.60
2018-05-04T10:43:52.029Z,54.60
2018-05-04T10:46:20.810Z,54.00
2018-05-04T10:48:50.810Z,53.00
2018-05-04T10:51:20.091Z,52.90
2018-05-04T10:53:49.850Z,52.40
2018-05-04T10:56:20.090Z,52.70
2018-05-04T10:58:49.334Z,52.90
2018-05-04T11:01:18.590Z,52.60
2018-05-04T11:03:47.429Z,52.30
2018-05-04T11:06:16.831Z,52.10
2018-05-04T11:08:45.471Z,52.00
2018-05-04T11:11:14.310Z,52.20
2018-05-04T11:13:43.290Z,52.20
2018-05-04T11:16:13.310Z,51.80
2018-05-04T11:18:41.549Z,51.40
2018-05-04T11:21:10.529Z,51.30
2018-05-04T11:23:40.311Z,50.70
2018-05-04T11:26:09.289Z,51.00
2018-05-04T11:28:40.070Z,50.80
2018-05-04T11:31:09.064Z,49.80
2018-05-04T11:33:37.829Z,50.00
2018-05-04T11:36:06.383Z,50.20
2018-05-04T11:38:35.999Z,50.00
2018-05-04T11:41:05.300Z,49.00
2018-05-04T11:43:34.561Z,49.40
2018-05-04T11:46:04.307Z,50.20
2018-05-04T11:48:33.040Z,49.60
2018-05-04T11:51:02.067Z,49.60
2018-05-04T11:53:31.293Z,48.70
2018-05-04T11:56:01.053Z,49.30
2018-05-04T11:58:30.313Z,49.00
2018-05-04T12:00:59.513Z,48.30
2018-05-04T12:03:29.012Z,48.40
2018-05-04T12:05:57.797Z,47.20
2018-05-04T12:08:27.033Z,47.20
2018-05-04T12:10:55.719Z,47.60
2018-05-04T12:13:24.552Z,47.80
2018-05-04T12:15:54.293Z,47.90
2018-05-04T12:18:23.274Z,47.80
2018-05-04T12:20:51.753Z,47.90
2018-05-04T12:23:20.737Z,48.00
2018-05-04T12:25:49.752Z,48.20
2018-05-04T12:28:18.992Z,48.20
2018-05-04T12:30:48.233Z,48.40
2018-05-04T12:33:17.495Z,48.70
2018-05-04T12:35:46.434Z,48.70
2018-05-04T12:38:15.212Z,48.70
2018-05-04T12:40:43.753Z,48.60
2018-05-04T12:43:13.473Z,48.70
2018-05-04T12:45:43.214Z,48.30
2018-05-04T12:48:11.689Z,47.80
2018-05-04T12:50:41.215Z,48.20
2018-05-04T12:53:09.896Z,48.00
2018-05-04T12:55:39.455Z,48.20
2018-05-04T12:58:08.237Z,48.70
2018-05-04T13:00:37.176Z,47.90
2018-05-04T13:03:06.176Z,47.90
2018-05-04T13:05:34.915Z,47.80
2018-05-04T13:08:05.448Z,46.80
2018-05-04T13:10:35.448Z,47.10
2018-05-04T13:13:05.207Z,47.00
2018-05-04T13:15:33.947Z,46.70
2018-05-04T13:18:02.948Z,46.90
2018-05-04T13:20:31.928Z,46.60
2018-05-04T13:23:00.249Z,46.40
2018-05-04T13:25:29.467Z,46.90
2018-05-04T13:27:58.147Z,46.40
2018-05-04T13:30:27.649Z,46.20
2018-05-04T13:32:56.649Z,45.50
2018-05-04T13:35:26.428Z,45.00
2018-05-04T13:37:56.189Z,45.30
2018-05-04T13:40:25.667Z,46.00
2018-05-04T13:42:54.607Z,45.90
2018-05-04T13:45:23.667Z,46.90
2018-05-04T13:47:52.308Z,46.90
2018-05-04T13:50:21.414Z,47.10
2018-05-04T13:52:49.870Z,47.00
2018-05-04T13:55:18.887Z,46.80
2018-05-04T13:57:47.867Z,46.90
2018-05-04T14:00:16.808Z,46.70
2018-05-04T14:02:45.848Z,46.50
2018-05-04T14:05:15.867Z,46.10
2018-05-04T14:07:44.827Z,46.80
2018-05-04T14:10:13.588Z,47.20
2018-05-04T14:12:42.900Z,47.00
2018-05-04T14:15:11.827Z,47.20
2018-05-04T14:17:40.848Z,47.20
2018-05-04T14:20:10.067Z,47.40
2018-05-04T14:22:38.268Z,47.60
2018-05-04T14:25:07.291Z,47.80
2018-05-04T14:27:36.314Z,47.70
2018-05-04T14:30:05.290Z,47.40
2018-05-04T14:32:34.529Z,47.50
2018-05-04T14:35:03.564Z,47.70
2018-05-04T14:37:32.396Z,48.30
2018-05-04T14:40:01.772Z,48.60
2018-05-04T14:42:31.528Z,48.60
2018-05-04T14:45:00.370Z,48.90
2018-05-04T14:47:29.809Z,49.10
2018-05-04T14:49:58.771Z,49.10
2018-05-04T14:52:27.989Z,49.50
2018-05-04T14:54:56.491Z,49.50
2018-05-04T14:57:25.136Z,49.70
2018-05-04T14:59:53.990Z,49.80
2018-05-04T15:02:23.229Z,50.10
2018-05-04T15:04:52.410Z,50.50
2018-05-04T15:07:21.530Z,49.70
2018-05-04T15:09:50.729Z,50.00
2018-05-04T15:12:20.329Z,50.60
2018-05-04T15:14:49.729Z,50.60
2018-05-04T15:17:18.970Z,51.20
2018-05-04T15:19:48.170Z,51.30
2018-05-04T15:22:17.270Z,51.20
2018-05-04T15:24:46.971Z,51.40
2018-05-04T15:27:16.091Z,52.10
2018-05-04T15:29:45.229Z,52.30
2018-05-04T15:32:14.209Z,51.60
2018-05-04T15:34:42.969Z,51.50
2018-05-04T15:37:11.970Z,51.60
2018-05-04T15:39:41.479Z,51.40
2018-05-04T15:42:10.379Z,52.20
2018-05-04T15:44:39.178Z,52.60
2018-05-04T15:47:07.979Z,52.40
2018-05-04T15:49:36.678Z,52.50
2018-05-04T15:52:06.678Z,52.50
2018-05-04T15:54:35.900Z,52.50
2018-05-04T15:57:04.659Z,52.70
2018-05-04T15:59:33.638Z,52.50
2018-05-04T16:02:02.925Z,52.70
2018-05-04T16:04:31.560Z,52.80
2018-05-04T16:07:00.398Z,52.50
2018-05-04T16:09:29.358Z,52.70
2018-05-04T16:11:58.640Z,52.60
2018-05-04T16:14:27.359Z,52.70
2018-05-04T16:16:56.545Z,52.60
2018-05-04T16:19:25.838Z,52.70
2018-05-04T16:21:54.902Z,52.70
2018-05-04T16:24:24.339Z,52.60
2018-05-04T16:26:53.598Z,52.70
2018-05-04T16:29:22.259Z,53.00
2018-05-04T16:31:51.579Z,53.20
2018-05-04T16:34:20.339Z,53.10
2018-05-04T16:36:50.139Z,53.30
2018-05-04T16:39:18.980Z,53.20
2018-05-04T16:41:48.079Z,53.10
2018-05-04T16:44:17.062Z,53.40
2018-05-04T16:46:51.219Z,53.20
2018-05-04T16:49:25.319Z,53.00
2018-05-04T16:51:53.842Z,53.20
2018-05-04T16:54:23.899Z,53.20
2018-05-04T16:56:52.768Z,53.30
2018-05-04T16:59:21.798Z,53.40
2018-05-04T17:01:50.881Z,53.50
2018-05-04T17:04:20.558Z,53.50
2018-05-04T17:06:49.760Z,53.40
2018-05-04T17:09:19.900Z,53.60
2018-05-04T17:11:49.519Z,54.00
2018-05-04T17:14:18.839Z,54.20
2018-05-04T17:16:48.017Z,54.10
2018-05-04T17:19:17.078Z,54.20
2018-05-04T17:21:46.797Z,54.20
2018-05-04T17:24:15.586Z,54.10
2018-05-04T17:26:44.539Z,54.00
2018-05-04T17:29:13.617Z,54.10
2018-05-04T17:31:42.698Z,54.10
2018-05-04T17:34:11.886Z,54.10
2018-05-04T17:36:40.538Z,54.30
2018-05-04T17:39:09.539Z,54.30
2018-05-04T17:41:38.259Z,54.40
2018-05-04T17:44:07.861Z,54.50
2018-05-04T17:46:36.758Z,54.40
2018-05-04T17:49:05.698Z,54.30
2018-05-04T17:51:34.978Z,54.30
2018-05-04T17:54:03.758Z,54.20
2018-05-04T17:56:32.966Z,54.40
2018-05-04T17:59:01.699Z,54.30
2018-05-04T18:01:30.958Z,54.30
2018-05-04T18:03:59.962Z,54.20
2018-05-04T18:06:30.000Z,54.70
2018-05-04T18:08:59.159Z,54.10
2018-05-04T18:11:28.459Z,54.00
2018-05-04T18:13:57.758Z,54.00
2018-05-04T18:16:26.699Z,53.70
2018-05-04T18:18:56.102Z,53.60
2018-05-04T18:21:25.219Z,53.50
2018-05-04T18:23:53.838Z,53.50
2018-05-04T18:26:22.598Z,53.40
2018-05-04T18:28:51.158Z,53.30
2018-05-04T18:31:20.139Z,53.30
2018-05-04T18:33:49.678Z,53.80
2018-05-04T18:36:18.658Z,53.30
2018-05-04T18:38:47.365Z,53.40
2018-05-04T18:41:16.348Z,53.80
2018-05-04T18:43:45.120Z,54.00
2018-05-04T18:46:14.260Z,54.00
2018-05-04T18:48:42.880Z,54.10
2018-05-04T18:51:12.879Z,54.10
2018-05-04T18:53:42.639Z,53.70
2018-05-04T18:56:11.359Z,53.70
2018-05-04T18:58:40.519Z,53.70
2018-05-04T19:01:09.598Z,53.60
2018-05-04T19:03:38.579Z,53.50
2018-05-04T19:06:07.880Z,53.60
2018-05-04T19:08:37.358Z,53.60
2018-05-04T19:11:06.643Z,53.60
2018-05-04T19:13:35.920Z,53.70
2018-05-04T19:16:04.599Z,53.70
2018-05-04T19:18:33.838Z,53.80
2018-05-04T19:21:03.038Z,53.70
2018-05-04T19:23:32.358Z,53.70
2018-05-04T19:26:02.121Z,53.90
2018-05-04T19:28:31.100Z,53.90
2018-05-04T19:31:00.079Z,53.80
2018-05-04T19:33:28.840Z,53.70
2018-05-04T19:35:58.581Z,54.50
2018-05-04T19:38:27.839Z,54.10
2018-05-04T19:40:56.819Z,54.10
2018-05-04T19:43:25.820Z,54.10
2018-05-04T19:45:55.321Z,53.90
2018-05-04T19:48:23.799Z,53.80
2018-05-04T19:50:52.799Z,53.90
2018-05-04T19:53:22.081Z,54.00
2018-05-04T19:55:51.819Z,54.00
2018-05-04T19:58:20.800Z,54.00
2018-05-04T20:00:50.079Z,54.00
2018-05-04T20:03:19.498Z,54.10
2018-05-04T20:05:48.559Z,54.20
2018-05-04T20:08:17.540Z,54.20
2018-05-04T20:10:46.800Z,54.20
2018-05-04T20:13:15.800Z,54.30
2018-05-04T20:15:45.602Z,54.30
2018-05-04T20:18:14.318Z,54.40
2018-05-04T20:20:43.279Z,54.60
2018-05-04T20:23:11.779Z,54.50
2018-05-04T20:25:41.765Z,54.40
2018-05-04T20:28:10.540Z,54.40
2018-05-04T20:30:39.800Z,54.50
2018-05-04T20:33:08.522Z,54.70
2018-05-04T20:35:38.520Z,54.80
2018-05-04T20:38:07.519Z,54.80
2018-05-04T20:40:36.519Z,55.10
2018-05-04T20:43:05.858Z,56.00
2018-05-04T20:45:35.199Z,56.20
2018-05-04T20:48:04.779Z,56.20
2018-05-04T20:50:34.799Z,56.70
2018-05-04T20:53:04.418Z,56.70
2018-05-04T20:55:33.522Z,56.50
2018-05-04T20:58:02.538Z,56.60
2018-05-04T21:00:32.300Z,56.90
2018-05-04T21:03:01.279Z,57.00
2018-05-04T21:05:30.279Z,57.00
2018-05-04T21:07:59.518Z,57.20
2018-05-04T21:10:31.518Z,57.50
2018-05-04T21:13:00.858Z,57.70
2018-05-04T21:15:30.339Z,58.30
2018-05-04T21:17:59.119Z,58.30
2018-05-04T21:20:28.525Z,58.30
2018-05-04T21:22:57.178Z,58.50
2018-05-04T21:25:25.839Z,58.80
2018-05-04T21:27:55.339Z,58.90
2018-05-04T21:30:24.318Z,58.90
2018-05-04T21:32:52.858Z,59.00
2018-05-04T21:35:21.519Z,58.80
2018-05-04T21:37:50.319Z,58.90
2018-05-04T21:40:19.520Z,59.10
2018-05-04T21:42:48.520Z,59.00
2018-05-04T21:45:17.439Z,58.90
2018-05-04T21:47:46.499Z,58.90
2018-05-04T21:50:15.641Z,58.90
2018-05-04T21:52:44.738Z,59.00
2018-05-04T21:55:13.478Z,58.90
2018-05-04T21:57:42.458Z,59.80
2018-05-04T22:00:11.447Z,59.10
2018-05-04T22:02:40.277Z,59.00
2018-05-04T22:05:09.719Z,59.00
2018-05-04T22:07:40.239Z,58.90
2018-05-04T22:10:10.498Z,58.40
2018-05-04T22:12:39.058Z,58.30
2018-05-04T22:15:07.978Z,58.10
2018-05-04T22:17:37.158Z,57.20
2018-05-04T22:20:06.478Z,57.10
2018-05-04T22:22:35.558Z,56.90
2018-05-04T22:25:05.238Z,56.60
2018-05-04T22:27:34.217Z,56.60
2018-05-04T22:30:03.718Z,56.90
2018-05-04T22:32:32.728Z,57.50
2018-05-04T22:35:03.019Z,57.70
2018-05-04T22:37:31.700Z,57.90
2018-05-04T22:40:00.837Z,58.00
2018-05-04T22:42:29.998Z,58.70
2018-05-04T22:44:58.738Z,58.30
2018-05-04T22:47:27.978Z,58.60
2018-05-04T22:49:57.199Z,58.80
2018-05-04T22:52:26.221Z,58.50
2018-05-04T22:54:54.938Z,58.60
2018-05-04T22:57:24.177Z,58.70
2018-05-04T22:59:52.657Z,58.90
2018-05-04T23:02:21.398Z,59.10
2018-05-04T23:04:50.398Z,59.80
2018-05-04T23:07:20.178Z,60.20
2018-05-04T23:09:49.918Z,60.40
2018-05-04T23:12:18.337Z,60.40
2018-05-04T23:14:46.638Z,60.20
2018-05-04T23:17:16.601Z,59.90
2018-05-04T23:19:45.638Z,60.00
2018-05-04T23:22:32.838Z,60.10
2018-05-04T23:25:01.805Z,60.30
2018-05-04T23:27:30.798Z,60.40
2018-05-04T23:30:00.280Z,61.30
2018-05-04T23:32:29.298Z,60.70
2018-05-04T23:34:58.278Z,60.40
2018-05-04T23:37:27.980Z,61.30
2018-05-04T23:39:57.098Z,60.80
2018-05-04T23:42:26.318Z,60.90
2018-05-04T23:44:55.318Z,61.10
2018-05-04T23:47:25.039Z,60.90
2018-05-04T23:49:54.058Z,60.80
2018-05-04T23:52:22.878Z,60.80
2018-05-04T23:54:51.760Z,60.40
2018-05-04T23:57:20.538Z,61.60
2018-05-04T23:59:49.238Z,60.80
